createdAt,value
2023-02-06T00:05:13.152Z,91.08
2023-02-06T00:15:35.217Z,90.85
2023-02-06T00:25:56.805Z,92.00
2023-02-06T00:36:18.269Z,91.63
2023-02-06T00:46:39.788Z,92.31
2023-02-06T00:57:01.276Z,91.87
2023-02-06T01:07:22.646Z,91.81
2023-02-06T01:17:43.989Z,91.54
2023-02-06T01:28:05.400Z,91.84
2023-02-06T01:38:26.777Z,91.67
2023-02-06T01:48:49.505Z,91.92
2023-02-06T01:59:11.609Z,91.42
2023-02-06T02:09:33.654Z,91.75
2023-02-06T02:20:13.930Z,91.75
2023-02-06T02:30:54.256Z,91.29
2023-02-06T02:41:27.774Z,92.11
2023-02-06T02:51:50.284Z,91.72
2023-02-06T03:02:14.550Z,92.58
2023-02-06T03:12:44.661Z,92.19
2023-02-06T03:23:06.803Z,92.47
2023-02-06T03:33:31.781Z,92.79
2023-02-06T03:43:53.937Z,93.63
2023-02-06T03:54:16.954Z,93.05
2023-02-06T04:04:39.771Z,92.97
2023-02-06T04:15:01.124Z,92.46
2023-02-06T04:25:22.494Z,93.28
2023-02-06T04:35:43.967Z,93.38
2023-02-06T04:46:05.354Z,93.04
2023-02-06T04:56:26.782Z,94.13
2023-02-06T05:06:48.136Z,93.50
2023-02-06T05:17:09.515Z,93.29
2023-02-06T05:27:30.864Z,93.56
2023-02-06T05:37:52.280Z,93.79
2023-02-06T05:48:13.646Z,94.12
2023-02-06T05:58:35.034Z,93.36
2023-02-06T06:08:56.374Z,94.25
2023-02-06T06:19:17.817Z,94.88
2023-02-06T06:29:39.314Z,94.91
2023-02-06T06:40:00.682Z,94.78
2023-02-06T06:50:22.136Z,94.75
2023-02-06T07:00:43.580Z,94.98
2023-02-06T07:11:05.130Z,96.98
2023-02-06T07:21:26.479Z,96.22
2023-02-06T07:31:47.859Z,95.28
2023-02-06T07:42:09.313Z,95.04
2023-02-06T07:52:30.933Z,94.88
2023-02-06T08:02:52.277Z,95.71
2023-02-06T08:13:13.662Z,95.43
2023-02-06T08:23:35.389Z,96.08
2023-02-06T08:33:57.259Z,96.75
2023-02-06T08:44:18.679Z,96.80
2023-02-06T08:54:40.033Z,97.92
2023-02-06T09:05:01.416Z,99.67
2023-02-06T09:15:22.760Z,99.37
2023-02-06T09:25:45.103Z,100.00
2023-02-06T09:36:08.714Z,100.00
2023-02-06T09:46:33.368Z,100.00
2023-02-06T09:57:06.135Z,100.00
2023-02-06T10:07:57.265Z,100.00
2023-02-06T10:18:35.950Z,100.00
2023-02-06T10:29:00.419Z,100.00
2023-02-06T10:39:34.002Z,100.00
2023-02-06T10:50:02.963Z,100.00
2023-02-06T11:00:28.022Z,100.00
2023-02-06T11:10:50.093Z,99.93
2023-02-06T11:21:14.063Z,99.76
2023-02-06T11:31:44.911Z,100.00
2023-02-06T11:42:24.705Z,99.55
2023-02-06T11:52:47.252Z,98.82
2023-02-06T12:03:30.919Z,98.63
2023-02-06T12:13:57.348Z,97.43
2023-02-06T12:24:21.826Z,97.23
2023-02-06T12:34:56.372Z,96.78
2023-02-06T12:45:43.096Z,94.91
2023-02-06T12:56:13.782Z,93.97
2023-02-06T13:06:50.403Z,93.77
2023-02-06T13:17:22.006Z,93.13
2023-02-06T13:27:43.520Z,93.79
2023-02-06T13:38:23.452Z,92.57
2023-02-06T13:49:12.170Z,91.82
2023-02-06T13:59:50.795Z,91.52
2023-02-06T14:10:46.758Z,91.85
2023-02-06T14:21:29.484Z,91.70
2023-02-06T14:32:09.753Z,90.79
2023-02-06T14:42:57.485Z,90.56
2023-02-06T14:53:25.124Z,90.50
2023-02-06T15:03:48.194Z,90.04
2023-02-06T15:14:20.126Z,91.08
2023-02-06T15:24:44.464Z,91.24
2023-02-06T15:35:41.662Z,90.62
2023-02-06T15:46:04.792Z,90.74
2023-02-06T15:56:28.600Z,90.11
2023-02-06T16:07:01.472Z,91.09
2023-02-06T16:17:30.206Z,90.70
2023-02-06T16:27:52.438Z,91.73
2023-02-06T16:38:13.834Z,92.18
2023-02-06T16:48:35.210Z,91.37
2023-02-06T16:58:56.584Z,91.44
2023-02-06T17:09:18.852Z,92.91
2023-02-06T17:19:40.725Z,91.43
2023-02-06T17:30:04.036Z,92.30
2023-02-06T17:40:28.217Z,92.21
2023-02-06T17:50:49.603Z,93.13
2023-02-06T18:01:15.466Z,92.71
2023-02-06T18:11:37.110Z,92.98
2023-02-06T18:21:58.493Z,93.83
2023-02-06T18:32:19.957Z,92.62
2023-02-06T18:42:50.774Z,93.56
2023-02-06T18:53:12.167Z,93.16
2023-02-06T19:03:33.528Z,94.09
2023-02-06T19:13:55.015Z,94.69
2023-02-06T19:24:18.660Z,94.52
2023-02-06T19:34:40.873Z,94.06
2023-02-06T19:45:04.164Z,93.68
2023-02-06T19:55:25.574Z,92.77
2023-02-06T20:05:47.110Z,92.69
2023-02-06T20:16:23.430Z,92.61
2023-02-06T20:26:45.398Z,91.98
2023-02-06T20:37:06.791Z,91.80
2023-02-06T20:47:28.380Z,92.26
2023-02-06T20:57:49.766Z,92.57
2023-02-06T21:08:12.067Z,92.30
2023-02-06T21:18:33.738Z,92.20
2023-02-06T21:28:55.169Z,92.47
2023-02-06T21:39:21.562Z,92.77
2023-02-06T21:49:42.944Z,92.70
2023-02-06T22:00:04.681Z,92.86
2023-02-06T22:10:26.093Z,92.33
2023-02-06T22:20:47.442Z,91.75
2023-02-06T22:31:10.394Z,92.16
2023-02-06T22:41:32.221Z,91.45
2023-02-06T22:51:53.688Z,92.41
2023-02-06T23:02:15.138Z,91.35
2023-02-06T23:12:36.543Z,92.07
2023-02-06T23:22:57.914Z,91.02
2023-02-06T23:33:19.664Z,90.86
2023-02-06T23:43:41.201Z,91.56
2023-02-06T23:54:02.742Z,91.19
